sensor_id;sensor_type;location;lat;lon;timestamp;P1;durP1;ratioP1;P2;durP2;ratioP2
60588;SDS011;46421;48.610;9.334;2022-08-23T00:01:23;0.20;;;0.20;;
60588;SDS011;46421;48.610;9.334;2022-08-23T00:03:58;0.17;;;0.17;;
60588;SDS011;46421;48.610;9.334;2022-08-23T00:06:26;0.25;;;0.25;;
60588;SDS011;46421;48.610;9.334;2022-08-23T00:08:52;0.30;;;0.30;;
60588;SDS011;46421;48.610;9.334;2022-08-23T00:11:32;0.20;;;0.20;;
60588;SDS011;46421;48.610;9.334;2022-08-23T00:13:59;0.13;;;0.13;;
60588;SDS011;46421;48.610;9.334;2022-08-23T00:16:28;0.28;;;0.28;;
60588;SDS011;46421;48.610;9.334;2022-08-23T00:18:53;0.25;;;0.25;;
60588;SDS011;46421;48.610;9.334;2022-08-23T00:21:19;0.20;;;0.20;;
60588;SDS011;46421;48.610;9.334;2022-08-23T00:23:44;0.20;;;0.20;;
60588;SDS011;46421;48.610;9.334;2022-08-23T00:26:09;0.30;;;0.30;;
60588;SDS011;46421;48.610;9.334;2022-08-23T00:28:35;0.20;;;0.20;;
60588;SDS011;46421;48.610;9.334;2022-08-23T00:31:00;0.30;;;0.30;;
60588;SDS011;46421;48.610;9.334;2022-08-23T00:33:25;0.20;;;0.20;;
60588;SDS011;46421;48.610;9.334;2022-08-23T00:35:51;0.20;;;0.20;;
60588;SDS011;46421;48.610;9.334;2022-08-23T00:38:16;0.20;;;0.20;;
60588;SDS011;46421;48.610;9.334;2022-08-23T00:40:46;0.28;;;0.28;;
60588;SDS011;46421;48.610;9.334;2022-08-23T00:43:25;0.20;;;0.20;;
60588;SDS011;46421;48.610;9.334;2022-08-23T00:48:21;0.20;;;0.20;;
60588;SDS011;46421;48.610;9.334;2022-08-23T00:50:55;0.10;;;0.10;;
60588;SDS011;46421;48.610;9.334;2022-08-23T00:53:28;0.30;;;0.30;;
60588;SDS011;46421;48.610;9.334;2022-08-23T00:55:58;0.20;;;0.20;;
60588;SDS011;46421;48.610;9.334;2022-08-23T00:58:26;0.15;;;0.15;;
60588;SDS011;46421;48.610;9.334;2022-08-23T01:00:52;0.20;;;0.20;;
60588;SDS011;46421;48.610;9.334;2022-08-23T01:03:19;0.30;;;0.30;;
60588;SDS011;46421;48.610;9.334;2022-08-23T01:06:05;0.20;;;0.20;;
60588;SDS011;46421;48.610;9.334;2022-08-23T01:08:35;0.20;;;0.20;;
60588;SDS011;46421;48.610;9.334;2022-08-23T01:11:06;0.20;;;0.20;;
60588;SDS011;46421;48.610;9.334;2022-08-23T01:16:05;0.10;;;0.10;;
60588;SDS011;46421;48.610;9.334;2022-08-23T01:18:35;0.20;;;0.20;;
60588;SDS011;46421;48.610;9.334;2022-08-23T01:21:10;0.20;;;0.20;;
60588;SDS011;46421;48.610;9.334;2022-08-23T01:24:13;0.20;;;0.20;;
60588;SDS011;46421;48.610;9.334;2022-08-23T01:28:58;0.20;;;0.20;;
60588;SDS011;46421;48.610;9.334;2022-08-23T01:31:23;0.20;;;0.20;;
60588;SDS011;46421;48.610;9.334;2022-08-23T01:33:50;0.20;;;0.20;;
60588;SDS011;46421;48.610;9.334;2022-08-23T01:36:25;0.30;;;0.30;;
60588;SDS011;46421;48.610;9.334;2022-08-23T01:38:51;0.20;;;0.20;;
60588;SDS011;46421;48.610;9.334;2022-08-23T01:41:16;0.20;;;0.20;;
60588;SDS011;46421;48.610;9.334;2022-08-23T01:43:42;0.15;;;0.15;;
60588;SDS011;46421;48.610;9.334;2022-08-23T01:46:08;0.20;;;0.20;;
60588;SDS011;46421;48.610;9.334;2022-08-23T01:48:45;0.20;;;0.20;;
60588;SDS011;46421;48.610;9.334;2022-08-23T01:51:12;0.20;;;0.20;;
60588;SDS011;46421;48.610;9.334;2022-08-23T01:53:39;0.20;;;0.20;;
60588;SDS011;46421;48.610;9.334;2022-08-23T01:56:04;0.20;;;0.20;;
60588;SDS011;46421;48.610;9.334;2022-08-23T01:58:31;0.20;;;0.20;;
60588;SDS011;46421;48.610;9.334;2022-08-23T02:00:57;0.20;;;0.20;;
60588;SDS011;46421;48.610;9.334;2022-08-23T02:03:23;0.20;;;0.20;;
60588;SDS011;46421;48.610;9.334;2022-08-23T02:05:48;0.10;;;0.10;;
60588;SDS011;46421;48.610;9.334;2022-08-23T02:08:14;0.20;;;0.20;;
60588;SDS011;46421;48.610;9.334;2022-08-23T02:10:39;0.10;;;0.10;;
60588;SDS011;46421;48.610;9.334;2022-08-23T02:13:04;0.20;;;0.20;;
60588;SDS011;46421;48.610;9.334;2022-08-23T02:15:30;0.20;;;0.20;;
60588;SDS011;46421;48.610;9.334;2022-08-23T02:17:55;0.10;;;0.10;;
60588;SDS011;46421;48.610;9.334;2022-08-23T02:20:20;0.20;;;0.20;;
60588;SDS011;46421;48.610;9.334;2022-08-23T02:22:45;0.20;;;0.20;;
60588;SDS011;46421;48.610;9.334;2022-08-23T02:25:11;0.20;;;0.20;;
60588;SDS011;46421;48.610;9.334;2022-08-23T02:27:36;0.10;;;0.10;;
60588;SDS011;46421;48.610;9.334;2022-08-23T02:30:02;0.30;;;0.30;;
60588;SDS011;46421;48.610;9.334;2022-08-23T02:32:28;0.20;;;0.20;;
60588;SDS011;46421;48.610;9.334;2022-08-23T02:34:53;0.30;;;0.30;;
60588;SDS011;46421;48.610;9.334;2022-08-23T02:37:18;0.28;;;0.28;;
60588;SDS011;46421;48.610;9.334;2022-08-23T02:39:43;0.30;;;0.30;;
60588;SDS011;46421;48.610;9.334;2022-08-23T02:42:09;0.23;;;0.23;;
60588;SDS011;46421;48.610;9.334;2022-08-23T02:44:34;0.40;;;0.40;;
60588;SDS011;46421;48.610;9.334;2022-08-23T02:47:00;0.20;;;0.20;;
60588;SDS011;46421;48.610;9.334;2022-08-23T02:49:27;0.20;;;0.20;;
60588;SDS011;46421;48.610;9.334;2022-08-23T02:51:53;0.10;;;0.10;;
60588;SDS011;46421;48.610;9.334;2022-08-23T02:54:18;0.20;;;0.20;;
60588;SDS011;46421;48.610;9.334;2022-08-23T02:56:43;0.20;;;0.20;;
60588;SDS011;46421;48.610;9.334;2022-08-23T02:59:09;0.10;;;0.10;;
60588;SDS011;46421;48.610;9.334;2022-08-23T03:01:35;0.10;;;0.10;;
60588;SDS011;46421;48.610;9.334;2022-08-23T03:04:02;0.20;;;0.20;;
60588;SDS011;46421;48.610;9.334;2022-08-23T03:06:33;0.20;;;0.20;;
60588;SDS011;46421;48.610;9.334;2022-08-23T03:08:59;0.30;;;0.30;;
60588;SDS011;46421;48.610;9.334;2022-08-23T03:11:25;0.20;;;0.20;;
60588;SDS011;46421;48.610;9.334;2022-08-23T03:13:51;0.20;;;0.20;;
60588;SDS011;46421;48.610;9.334;2022-08-23T03:16:18;0.20;;;0.20;;
60588;SDS011;46421;48.610;9.334;2022-08-23T03:18:44;0.20;;;0.20;;
60588;SDS011;46421;48.610;9.334;2022-08-23T03:21:10;0.20;;;0.20;;
60588;SDS011;46421;48.610;9.334;2022-08-23T03:23:36;0.30;;;0.30;;
60588;SDS011;46421;48.610;9.334;2022-08-23T03:26:03;0.20;;;0.20;;
60588;SDS011;46421;48.610;9.334;2022-08-23T03:28:31;0.30;;;0.30;;
60588;SDS011;46421;48.610;9.334;2022-08-23T03:30:58;0.20;;;0.20;;
60588;SDS011;46421;48.610;9.334;2022-08-23T03:33:23;0.20;;;0.20;;
60588;SDS011;46421;48.610;9.334;2022-08-23T03:35:49;0.15;;;0.15;;
60588;SDS011;46421;48.610;9.334;2022-08-23T03:38:15;0.10;;;0.10;;
60588;SDS011;46421;48.610;9.334;2022-08-23T03:40:41;0.20;;;0.20;;
60588;SDS011;46421;48.610;9.334;2022-08-23T03:43:07;0.38;;;0.38;;
60588;SDS011;46421;48.610;9.334;2022-08-23T03:45:32;0.22;;;0.22;;
60588;SDS011;46421;48.610;9.334;2022-08-23T03:47:57;0.20;;;0.20;;
60588;SDS011;46421;48.610;9.334;2022-08-23T03:50:23;0.20;;;0.20;;
60588;SDS011;46421;48.610;9.334;2022-08-23T03:52:48;0.30;;;0.30;;
60588;SDS011;46421;48.610;9.334;2022-08-23T03:55:13;0.20;;;0.20;;
60588;SDS011;46421;48.610;9.334;2022-08-23T03:57:40;0.17;;;0.17;;
60588;SDS011;46421;48.610;9.334;2022-08-23T04:00:06;0.20;;;0.20;;
60588;SDS011;46421;48.610;9.334;2022-08-23T04:02:33;0.20;;;0.20;;
60588;SDS011;46421;48.610;9.334;2022-08-23T04:04:59;0.20;;;0.20;;
60588;SDS011;46421;48.610;9.334;2022-08-23T04:07:24;0.17;;;0.17;;
60588;SDS011;46421;48.610;9.334;2022-08-23T04:09:50;0.10;;;0.10;;
60588;SDS011;46421;48.610;9.334;2022-08-23T04:12:15;0.22;;;0.22;;
60588;SDS011;46421;48.610;9.334;2022-08-23T04:14:41;0.30;;;0.30;;
60588;SDS011;46421;48.610;9.334;2022-08-23T04:17:06;0.20;;;0.20;;
60588;SDS011;46421;48.610;9.334;2022-08-23T04:19:32;0.10;;;0.10;;
60588;SDS011;46421;48.610;9.334;2022-08-23T04:21:57;0.17;;;0.17;;
60588;SDS011;46421;48.610;9.334;2022-08-23T04:24:22;0.20;;;0.20;;
60588;SDS011;46421;48.610;9.334;2022-08-23T04:26:48;0.20;;;0.20;;
60588;SDS011;46421;48.610;9.334;2022-08-23T04:29:13;0.20;;;0.20;;
60588;SDS011;46421;48.610;9.334;2022-08-23T04:31:39;0.20;;;0.20;;
60588;SDS011;46421;48.610;9.334;2022-08-23T04:34:04;0.20;;;0.20;;
60588;SDS011;46421;48.610;9.334;2022-08-23T04:36:30;0.30;;;0.30;;
60588;SDS011;46421;48.610;9.334;2022-08-23T04:39:06;0.10;;;0.10;;
60588;SDS011;46421;48.610;9.334;2022-08-23T04:41:32;0.20;;;0.20;;
60588;SDS011;46421;48.610;9.334;2022-08-23T04:43:58;0.30;;;0.30;;
60588;SDS011;46421;48.610;9.334;2022-08-23T04:46:23;0.20;;;0.20;;
60588;SDS011;46421;48.610;9.334;2022-08-23T04:48:48;0.20;;;0.20;;
60588;SDS011;46421;48.610;9.334;2022-08-23T04:51:14;0.20;;;0.20;;
60588;SDS011;46421;48.610;9.334;2022-08-23T04:53:40;0.10;;;0.10;;
60588;SDS011;46421;48.610;9.334;2022-08-23T04:56:06;0.30;;;0.30;;
60588;SDS011;46421;48.610;9.334;2022-08-23T04:58:32;0.20;;;0.20;;
60588;SDS011;46421;48.610;9.334;2022-08-23T05:00:58;0.20;;;0.20;;
60588;SDS011;46421;48.610;9.334;2022-08-23T05:03:26;0.20;;;0.20;;
60588;SDS011;46421;48.610;9.334;2022-08-23T05:05:52;0.20;;;0.20;;
60588;SDS011;46421;48.610;9.334;2022-08-23T05:08:18;0.20;;;0.20;;
60588;SDS011;46421;48.610;9.334;2022-08-23T05:10:44;0.20;;;0.20;;
60588;SDS011;46421;48.610;9.334;2022-08-23T05:13:09;0.30;;;0.30;;
60588;SDS011;46421;48.610;9.334;2022-08-23T05:15:34;0.30;;;0.30;;
60588;SDS011;46421;48.610;9.334;2022-08-23T05:18:00;0.28;;;0.28;;
60588;SDS011;46421;48.610;9.334;2022-08-23T05:20:25;0.30;;;0.30;;
60588;SDS011;46421;48.610;9.334;2022-08-23T05:22:51;0.30;;;0.30;;
60588;SDS011;46421;48.610;9.334;2022-08-23T05:25:16;0.30;;;0.30;;
60588;SDS011;46421;48.610;9.334;2022-08-23T05:27:42;0.10;;;0.10;;
60588;SDS011;46421;48.610;9.334;2022-08-23T05:30:07;0.25;;;0.25;;
60588;SDS011;46421;48.610;9.334;2022-08-23T05:32:34;0.30;;;0.30;;
60588;SDS011;46421;48.610;9.334;2022-08-23T05:34:59;0.25;;;0.25;;
60588;SDS011;46421;48.610;9.334;2022-08-23T05:37:25;0.30;;;0.30;;
60588;SDS011;46421;48.610;9.334;2022-08-23T05:39:50;0.20;;;0.20;;
60588;SDS011;46421;48.610;9.334;2022-08-23T05:42:15;0.30;;;0.30;;
60588;SDS011;46421;48.610;9.334;2022-08-23T05:44:41;0.20;;;0.20;;
60588;SDS011;46421;48.610;9.334;2022-08-23T05:47:09;0.30;;;0.30;;
60588;SDS011;46421;48.610;9.334;2022-08-23T05:49:35;0.17;;;0.17;;
60588;SDS011;46421;48.610;9.334;2022-08-23T05:52:02;0.30;;;0.30;;
60588;SDS011;46421;48.610;9.334;2022-08-23T05:54:28;0.30;;;0.30;;
60588;SDS011;46421;48.610;9.334;2022-08-23T05:56:54;0.20;;;0.20;;
60588;SDS011;46421;48.610;9.334;2022-08-23T05:59:19;0.30;;;0.30;;
60588;SDS011;46421;48.610;9.334;2022-08-23T06:01:44;0.30;;;0.30;;
60588;SDS011;46421;48.610;9.334;2022-08-23T06:04:10;0.38;;;0.38;;
60588;SDS011;46421;48.610;9.334;2022-08-23T06:06:37;0.40;;;0.40;;
60588;SDS011;46421;48.610;9.334;2022-08-23T06:09:04;0.40;;;0.40;;
60588;SDS011;46421;48.610;9.334;2022-08-23T06:11:30;0.30;;;0.30;;
60588;SDS011;46421;48.610;9.334;2022-08-23T06:13:57;0.32;;;0.32;;
60588;SDS011;46421;48.610;9.334;2022-08-23T06:16:25;0.40;;;0.40;;
60588;SDS011;46421;48.610;9.334;2022-08-23T06:18:55;0.50;;;0.50;;
60588;SDS011;46421;48.610;9.334;2022-08-23T06:21:23;0.47;;;0.47;;
60588;SDS011;46421;48.610;9.334;2022-08-23T06:23:49;0.50;;;0.50;;
60588;SDS011;46421;48.610;9.334;2022-08-23T06:26:16;0.40;;;0.40;;
60588;SDS011;46421;48.610;9.334;2022-08-23T06:28:44;0.50;;;0.50;;
60588;SDS011;46421;48.610;9.334;2022-08-23T06:31:11;0.40;;;0.40;;
60588;SDS011;46421;48.610;9.334;2022-08-23T06:33:37;0.30;;;0.30;;
60588;SDS011;46421;48.610;9.334;2022-08-23T06:36:06;0.40;;;0.40;;
60588;SDS011;46421;48.610;9.334;2022-08-23T06:38:34;0.32;;;0.32;;
60588;SDS011;46421;48.610;9.334;2022-08-23T06:41:01;0.30;;;0.30;;
60588;SDS011;46421;48.610;9.334;2022-08-23T06:43:28;0.30;;;0.30;;
60588;SDS011;46421;48.610;9.334;2022-08-23T06:45:53;0.28;;;0.28;;
60588;SDS011;46421;48.610;9.334;2022-08-23T06:48:19;0.30;;;0.30;;
60588;SDS011;46421;48.610;9.334;2022-08-23T06:50:48;0.30;;;0.30;;
60588;SDS011;46421;48.610;9.334;2022-08-23T06:53:13;0.30;;;0.30;;
60588;SDS011;46421;48.610;9.334;2022-08-23T06:55:38;0.30;;;0.30;;
60588;SDS011;46421;48.610;9.334;2022-08-23T06:58:04;0.30;;;0.30;;
60588;SDS011;46421;48.610;9.334;2022-08-23T07:00:29;0.28;;;0.28;;
60588;SDS011;46421;48.610;9.334;2022-08-23T07:02:54;0.30;;;0.30;;
60588;SDS011;46421;48.610;9.334;2022-08-23T07:05:19;0.30;;;0.30;;
60588;SDS011;46421;48.610;9.334;2022-08-23T07:07:45;0.20;;;0.20;;
60588;SDS011;46421;48.610;9.334;2022-08-23T07:10:10;0.28;;;0.28;;
60588;SDS011;46421;48.610;9.334;2022-08-23T07:12:39;0.30;;;0.30;;
60588;SDS011;46421;48.610;9.334;2022-08-23T07:15:05;0.30;;;0.30;;
60588;SDS011;46421;48.610;9.334;2022-08-23T07:17:31;0.30;;;0.30;;
60588;SDS011;46421;48.610;9.334;2022-08-23T07:19:57;0.30;;;0.30;;
60588;SDS011;46421;48.610;9.334;2022-08-23T07:22:22;0.30;;;0.30;;
60588;SDS011;46421;48.610;9.334;2022-08-23T07:24:47;0.30;;;0.30;;
60588;SDS011;46421;48.610;9.334;2022-08-23T07:27:13;0.20;;;0.20;;
60588;SDS011;46421;48.610;9.334;2022-08-23T07:29:38;0.20;;;0.20;;
60588;SDS011;46421;48.610;9.334;2022-08-23T07:32:04;0.20;;;0.20;;
60588;SDS011;46421;48.610;9.334;2022-08-23T07:34:30;0.30;;;0.30;;
60588;SDS011;46421;48.610;9.334;2022-08-23T07:36:55;0.22;;;0.22;;
60588;SDS011;46421;48.610;9.334;2022-08-23T07:39:21;0.30;;;0.30;;
60588;SDS011;46421;48.610;9.334;2022-08-23T07:41:47;0.40;;;0.40;;
60588;SDS011;46421;48.610;9.334;2022-08-23T07:44:13;0.30;;;0.30;;
60588;SDS011;46421;48.610;9.334;2022-08-23T07:46:40;0.30;;;0.30;;
60588;SDS011;46421;48.610;9.334;2022-08-23T07:49:08;0.40;;;0.40;;
60588;SDS011;46421;48.610;9.334;2022-08-23T07:51:34;0.30;;;0.30;;
60588;SDS011;46421;48.610;9.334;2022-08-23T07:54:03;0.30;;;0.30;;
60588;SDS011;46421;48.610;9.334;2022-08-23T07:56:30;0.32;;;0.32;;
60588;SDS011;46421;48.610;9.334;2022-08-23T07:58:56;0.40;;;0.40;;
60588;SDS011;46421;48.610;9.334;2022-08-23T08:01:23;0.32;;;0.32;;
60588;SDS011;46421;48.610;9.334;2022-08-23T08:03:51;0.20;;;0.20;;
60588;SDS011;46421;48.610;9.334;2022-08-23T08:06:23;0.30;;;0.30;;
60588;SDS011;46421;48.610;9.334;2022-08-23T08:08:52;0.30;;;0.30;;
60588;SDS011;46421;48.610;9.334;2022-08-23T08:11:18;0.38;;;0.38;;
60588;SDS011;46421;48.610;9.334;2022-08-23T08:13:47;0.32;;;0.32;;
60588;SDS011;46421;48.610;9.334;2022-08-23T08:16:21;0.40;;;0.40;;
60588;SDS011;46421;48.610;9.334;2022-08-23T08:18:58;0.35;;;0.35;;
60588;SDS011;46421;48.610;9.334;2022-08-23T08:21:25;0.38;;;0.38;;
60588;SDS011;46421;48.610;9.334;2022-08-23T08:23:52;0.40;;;0.40;;
60588;SDS011;46421;48.610;9.334;2022-08-23T08:26:18;0.22;;;0.22;;
60588;SDS011;46421;48.610;9.334;2022-08-23T08:28:43;0.30;;;0.30;;
60588;SDS011;46421;48.610;9.334;2022-08-23T08:31:09;0.40;;;0.40;;
60588;SDS011;46421;48.610;9.334;2022-08-23T08:33:35;0.40;;;0.40;;
60588;SDS011;46421;48.610;9.334;2022-08-23T08:36:02;0.40;;;0.40;;
60588;SDS011;46421;48.610;9.334;2022-08-23T08:38:27;0.30;;;0.30;;
60588;SDS011;46421;48.610;9.334;2022-08-23T08:40:58;0.40;;;0.40;;
60588;SDS011;46421;48.610;9.334;2022-08-23T08:43:56;0.40;;;0.40;;
60588;SDS011;46421;48.610;9.334;2022-08-23T08:46:47;0.30;;;0.30;;
60588;SDS011;46421;48.610;9.334;2022-08-23T08:49:27;0.32;;;0.32;;
60588;SDS011;46421;48.610;9.334;2022-08-23T08:52:44;0.40;;;0.40;;
60588;SDS011;46421;48.610;9.334;2022-08-23T08:55:00;0.30;;;0.30;;
60588;SDS011;46421;48.610;9.334;2022-08-23T08:57:29;0.35;;;0.35;;
60588;SDS011;46421;48.610;9.334;2022-08-23T09:00:35;0.35;;;0.35;;
60588;SDS011;46421;48.610;9.334;2022-08-23T09:02:56;0.30;;;0.30;;
60588;SDS011;46421;48.610;9.334;2022-08-23T09:05:24;0.50;;;0.50;;
60588;SDS011;46421;48.610;9.334;2022-08-23T09:15:29;0.23;;;0.23;;
60588;SDS011;46421;48.610;9.334;2022-08-23T09:18:08;0.30;;;0.30;;
60588;SDS011;46421;48.610;9.334;2022-08-23T09:20:36;0.40;;;0.40;;
60588;SDS011;46421;48.610;9.334;2022-08-23T09:23:21;0.40;;;0.40;;
60588;SDS011;46421;48.610;9.334;2022-08-23T09:25:52;0.20;;;0.20;;
60588;SDS011;46421;48.610;9.334;2022-08-23T09:28:23;0.30;;;0.30;;
60588;SDS011;46421;48.610;9.334;2022-08-23T09:30:50;0.30;;;0.30;;
60588;SDS011;46421;48.610;9.334;2022-08-23T09:33:18;0.30;;;0.30;;
60588;SDS011;46421;48.610;9.334;2022-08-23T09:38:54;0.30;;;0.30;;
60588;SDS011;46421;48.610;9.334;2022-08-23T09:41:23;0.30;;;0.30;;
60588;SDS011;46421;48.610;9.334;2022-08-23T09:43:50;0.30;;;0.30;;
60588;SDS011;46421;48.610;9.334;2022-08-23T09:46:26;0.40;;;0.40;;
60588;SDS011;46421;48.610;9.334;2022-08-23T09:48:56;0.30;;;0.30;;
60588;SDS011;46421;48.610;9.334;2022-08-23T09:56:34;0.25;;;0.25;;
60588;SDS011;46421;48.610;9.334;2022-08-23T09:59:03;0.30;;;0.30;;
60588;SDS011;46421;48.610;9.334;2022-08-23T10:01:59;0.30;;;0.30;;
60588;SDS011;46421;48.610;9.334;2022-08-23T10:07:25;0.40;;;0.40;;
60588;SDS011;46421;48.610;9.334;2022-08-23T10:10:12;0.28;;;0.28;;
60588;SDS011;46421;48.610;9.334;2022-08-23T10:12:57;0.28;;;0.28;;
60588;SDS011;46421;48.610;9.334;2022-08-23T10:15:24;0.40;;;0.40;;
60588;SDS011;46421;48.610;9.334;2022-08-23T10:18:24;0.30;;;0.30;;
60588;SDS011;46421;48.610;9.334;2022-08-23T10:26:32;0.20;;;0.20;;
60588;SDS011;46421;48.610;9.334;2022-08-23T10:29:02;0.28;;;0.28;;
60588;SDS011;46421;48.610;9.334;2022-08-23T10:31:45;0.30;;;0.30;;
60588;SDS011;46421;48.610;9.334;2022-08-23T10:37:49;0.25;;;0.25;;
60588;SDS011;46421;48.610;9.334;2022-08-23T10:43:27;0.30;;;0.30;;
60588;SDS011;46421;48.610;9.334;2022-08-23T10:46:02;0.30;;;0.30;;
60588;SDS011;46421;48.610;9.334;2022-08-23T10:48:33;0.25;;;0.25;;
60588;SDS011;46421;48.610;9.334;2022-08-23T10:51:02;0.30;;;0.30;;
60588;SDS011;46421;48.610;9.334;2022-08-23T10:53:41;0.30;;;0.30;;
60588;SDS011;46421;48.610;9.334;2022-08-23T10:56:15;0.30;;;0.30;;
60588;SDS011;46421;48.610;9.334;2022-08-23T11:01:13;0.40;;;0.40;;
60588;SDS011;46421;48.610;9.334;2022-08-23T11:03:49;0.22;;;0.22;;
60588;SDS011;46421;48.610;9.334;2022-08-23T11:06:30;0.35;;;0.35;;
60588;SDS011;46421;48.610;9.334;2022-08-23T11:09:27;0.22;;;0.22;;
60588;SDS011;46421;48.610;9.334;2022-08-23T11:17:24;0.25;;;0.25;;
60588;SDS011;46421;48.610;9.334;2022-08-23T11:19:54;0.30;;;0.30;;
60588;SDS011;46421;48.610;9.334;2022-08-23T11:22:26;0.30;;;0.30;;
60588;SDS011;46421;48.610;9.334;2022-08-23T11:25:00;0.30;;;0.30;;
60588;SDS011;46421;48.610;9.334;2022-08-23T11:27:39;0.25;;;0.25;;
60588;SDS011;46421;48.610;9.334;2022-08-23T11:32:59;0.20;;;0.20;;
60588;SDS011;46421;48.610;9.334;2022-08-23T11:35:38;0.30;;;0.30;;
60588;SDS011;46421;48.610;9.334;2022-08-23T11:43:43;0.30;;;0.30;;
60588;SDS011;46421;48.610;9.334;2022-08-23T11:46:32;0.20;;;0.20;;
60588;SDS011;46421;48.610;9.334;2022-08-23T11:49:15;0.20;;;0.20;;
60588;SDS011;46421;48.610;9.334;2022-08-23T11:57:35;0.10;;;0.10;;
60588;SDS011;46421;48.610;9.334;2022-08-23T12:08:45;0.20;;;0.20;;
60588;SDS011;46421;48.610;9.334;2022-08-23T12:11:14;0.10;;;0.10;;
60588;SDS011;46421;48.610;9.334;2022-08-23T12:13:49;0.13;;;0.13;;
60588;SDS011;46421;48.610;9.334;2022-08-23T12:21:21;0.20;;;0.20;;
60588;SDS011;46421;48.610;9.334;2022-08-23T12:23:49;0.20;;;0.20;;
60588;SDS011;46421;48.610;9.334;2022-08-23T12:26:27;0.20;;;0.20;;
60588;SDS011;46421;48.610;9.334;2022-08-23T12:29:05;0.20;;;0.20;;
60588;SDS011;46421;48.610;9.334;2022-08-23T12:40:14;0.10;;;0.10;;
60588;SDS011;46421;48.610;9.334;2022-08-23T12:42:51;0.13;;;0.13;;
60588;SDS011;46421;48.610;9.334;2022-08-23T12:45:34;0.20;;;0.20;;
60588;SDS011;46421;48.610;9.334;2022-08-23T12:48:06;0.10;;;0.10;;
60588;SDS011;46421;48.610;9.334;2022-08-23T12:50:39;0.10;;;0.10;;
60588;SDS011;46421;48.610;9.334;2022-08-23T12:55:34;0.20;;;0.20;;
60588;SDS011;46421;48.610;9.334;2022-08-23T12:58:02;0.17;;;0.17;;
60588;SDS011;46421;48.610;9.334;2022-08-23T13:00:31;0.20;;;0.20;;
60588;SDS011;46421;48.610;9.334;2022-08-23T13:03:01;0.10;;;0.10;;
60588;SDS011;46421;48.610;9.334;2022-08-23T13:05:31;0.15;;;0.15;;
60588;SDS011;46421;48.610;9.334;2022-08-23T13:08:03;0.10;;;0.10;;
60588;SDS011;46421;48.610;9.334;2022-08-23T13:10:32;0.10;;;0.10;;
60588;SDS011;46421;48.610;9.334;2022-08-23T13:12:59;0.10;;;0.10;;
60588;SDS011;46421;48.610;9.334;2022-08-23T13:18:49;0.15;;;0.15;;
60588;SDS011;46421;48.610;9.334;2022-08-23T13:24:25;0.20;;;0.20;;
60588;SDS011;46421;48.610;9.334;2022-08-23T13:27:09;0.10;;;0.10;;
60588;SDS011;46421;48.610;9.334;2022-08-23T13:29:49;0.10;;;0.10;;
60588;SDS011;46421;48.610;9.334;2022-08-23T13:32:24;0.10;;;0.10;;
60588;SDS011;46421;48.610;9.334;2022-08-23T13:43:28;0.10;;;0.10;;
60588;SDS011;46421;48.610;9.334;2022-08-23T13:45:58;0.10;;;0.10;;
60588;SDS011;46421;48.610;9.334;2022-08-23T13:48:33;0.10;;;0.10;;
60588;SDS011;46421;48.610;9.334;2022-08-23T13:53:48;0.20;;;0.20;;
60588;SDS011;46421;48.610;9.334;2022-08-23T13:56:13;0.10;;;0.10;;
60588;SDS011;46421;48.610;9.334;2022-08-23T13:58:39;0.10;;;0.10;;
60588;SDS011;46421;48.610;9.334;2022-08-23T14:01:04;0.10;;;0.10;;
60588;SDS011;46421;48.610;9.334;2022-08-23T14:03:40;0.10;;;0.10;;
60588;SDS011;46421;48.610;9.334;2022-08-23T14:06:06;0.10;;;0.10;;
60588;SDS011;46421;48.610;9.334;2022-08-23T14:08:31;0.10;;;0.10;;
60588;SDS011;46421;48.610;9.334;2022-08-23T14:10:56;0.10;;;0.10;;
60588;SDS011;46421;48.610;9.334;2022-08-23T14:13:22;0.00;;;0.00;;
60588;SDS011;46421;48.610;9.334;2022-08-23T14:15:51;0.10;;;0.10;;
60588;SDS011;46421;48.610;9.334;2022-08-23T14:18:16;0.10;;;0.10;;
60588;SDS011;46421;48.610;9.334;2022-08-23T14:20:42;0.10;;;0.10;;
60588;SDS011;46421;48.610;9.334;2022-08-23T14:23:07;0.10;;;0.10;;
60588;SDS011;46421;48.610;9.334;2022-08-23T14:25:32;0.10;;;0.10;;
60588;SDS011;46421;48.610;9.334;2022-08-23T14:27:57;0.10;;;0.10;;
60588;SDS011;46421;48.610;9.334;2022-08-23T14:30:28;0.10;;;0.10;;
60588;SDS011;46421;48.610;9.334;2022-08-23T14:32:55;0.10;;;0.10;;
60588;SDS011;46421;48.610;9.334;2022-08-23T14:35:24;0.00;;;0.00;;
60588;SDS011;46421;48.610;9.334;2022-08-23T14:37:50;0.10;;;0.10;;
60588;SDS011;46421;48.610;9.334;2022-08-23T14:40:15;0.10;;;0.10;;
60588;SDS011;46421;48.610;9.334;2022-08-23T14:42:41;0.00;;;0.00;;
60588;SDS011;46421;48.610;9.334;2022-08-23T14:45:07;0.03;;;0.03;;
60588;SDS011;46421;48.610;9.334;2022-08-23T14:47:33;0.05;;;0.05;;
60588;SDS011;46421;48.610;9.334;2022-08-23T14:49:58;0.00;;;0.00;;
60588;SDS011;46421;48.610;9.334;2022-08-23T14:52:23;0.00;;;0.00;;
60588;SDS011;46421;48.610;9.334;2022-08-23T14:54:49;0.10;;;0.10;;
60588;SDS011;46421;48.610;9.334;2022-08-23T14:57:14;0.10;;;0.10;;
60588;SDS011;46421;48.610;9.334;2022-08-23T14:59:39;0.10;;;0.10;;
60588;SDS011;46421;48.610;9.334;2022-08-23T15:02:05;0.10;;;0.10;;
60588;SDS011;46421;48.610;9.334;2022-08-23T15:04:34;0.00;;;0.00;;
60588;SDS011;46421;48.610;9.334;2022-08-23T15:07:00;0.00;;;0.00;;
60588;SDS011;46421;48.610;9.334;2022-08-23T15:09:26;0.00;;;0.00;;
60588;SDS011;46421;48.610;9.334;2022-08-23T15:11:52;0.00;;;0.00;;
60588;SDS011;46421;48.610;9.334;2022-08-23T15:14:17;0.10;;;0.10;;
60588;SDS011;46421;48.610;9.334;2022-08-23T15:16:42;0.00;;;0.00;;
60588;SDS011;46421;48.610;9.334;2022-08-23T15:19:08;0.00;;;0.00;;
60588;SDS011;46421;48.610;9.334;2022-08-23T15:21:33;0.00;;;0.00;;
60588;SDS011;46421;48.610;9.334;2022-08-23T15:23:58;0.00;;;0.00;;
60588;SDS011;46421;48.610;9.334;2022-08-23T15:26:25;0.00;;;0.00;;
60588;SDS011;46421;48.610;9.334;2022-08-23T15:28:53;0.00;;;0.00;;
60588;SDS011;46421;48.610;9.334;2022-08-23T15:31:19;0.00;;;0.00;;
60588;SDS011;46421;48.610;9.334;2022-08-23T15:33:45;0.00;;;0.00;;
60588;SDS011;46421;48.610;9.334;2022-08-23T15:36:11;0.00;;;0.00;;
60588;SDS011;46421;48.610;9.334;2022-08-23T15:38:38;0.00;;;0.00;;
60588;SDS011;46421;48.610;9.334;2022-08-23T15:41:04;0.00;;;0.00;;
60588;SDS011;46421;48.610;9.334;2022-08-23T15:43:30;0.00;;;0.00;;
60588;SDS011;46421;48.610;9.334;2022-08-23T15:45:56;0.00;;;0.00;;
60588;SDS011;46421;48.610;9.334;2022-08-23T15:50:58;0.00;;;0.00;;
60588;SDS011;46421;48.610;9.334;2022-08-23T15:53:24;0.00;;;0.00;;
60588;SDS011;46421;48.610;9.334;2022-08-23T15:55:50;0.00;;;0.00;;
60588;SDS011;46421;48.610;9.334;2022-08-23T15:58:19;0.00;;;0.00;;
60588;SDS011;46421;48.610;9.334;2022-08-23T16:00:47;0.00;;;0.00;;
60588;SDS011;46421;48.610;9.334;2022-08-23T16:03:13;0.00;;;0.00;;
60588;SDS011;46421;48.610;9.334;2022-08-23T16:05:39;0.00;;;0.00;;
60588;SDS011;46421;48.610;9.334;2022-08-23T16:08:07;0.00;;;0.00;;
60588;SDS011;46421;48.610;9.334;2022-08-23T16:10:36;0.00;;;0.00;;
60588;SDS011;46421;48.610;9.334;2022-08-23T16:13:02;0.00;;;0.00;;
60588;SDS011;46421;48.610;9.334;2022-08-23T16:15:27;0.00;;;0.00;;
60588;SDS011;46421;48.610;9.334;2022-08-23T16:17:52;0.00;;;0.00;;
60588;SDS011;46421;48.610;9.334;2022-08-23T16:20:18;0.00;;;0.00;;
60588;SDS011;46421;48.610;9.334;2022-08-23T16:22:43;0.00;;;0.00;;
60588;SDS011;46421;48.610;9.334;2022-08-23T16:25:08;0.00;;;0.00;;
60588;SDS011;46421;48.610;9.334;2022-08-23T16:27:34;0.00;;;0.00;;
60588;SDS011;46421;48.610;9.334;2022-08-23T16:30:00;0.00;;;0.00;;
60588;SDS011;46421;48.610;9.334;2022-08-23T16:32:25;0.00;;;0.00;;
60588;SDS011;46421;48.610;9.334;2022-08-23T16:34:51;0.00;;;0.00;;
60588;SDS011;46421;48.610;9.334;2022-08-23T16:37:17;0.00;;;0.00;;
60588;SDS011;46421;48.610;9.334;2022-08-23T16:39:42;0.00;;;0.00;;
60588;SDS011;46421;48.610;9.334;2022-08-23T16:42:08;0.00;;;0.00;;